createdAt,value
2019-02-27T00:02:36.090Z,43.70
2019-02-27T00:08:15.901Z,43.80
2019-02-27T00:10:44.705Z,45.43
2019-02-27T00:13:13.533Z,45.10
2019-02-27T00:15:42.327Z,46.30
2019-02-27T00:21:10.173Z,47.37
2019-02-27T00:23:36.396Z,44.67
2019-02-27T00:26:08.805Z,46.90
2019-02-27T00:28:35.723Z,46.30
2019-02-27T00:31:04.602Z,46.40
2019-02-27T00:33:33.464Z,47.00
2019-02-27T00:36:02.162Z,49.47
2019-02-27T00:38:31.023Z,46.17
2019-02-27T00:40:59.801Z,48.00
2019-02-27T00:43:29.089Z,47.03
2019-02-27T00:45:58.179Z,50.73
2019-02-27T00:48:26.937Z,47.70
2019-02-27T00:50:55.655Z,47.93
2019-02-27T00:53:25.147Z,46.43
2019-02-27T00:58:26.812Z,49.30
2019-02-27T01:00:54.696Z,49.57
2019-02-27T01:03:25.982Z,46.20
2019-02-27T01:08:48.987Z,48.23
2019-02-27T01:11:18.431Z,47.90
2019-02-27T01:16:17.207Z,48.73
2019-02-27T01:21:19.086Z,49.70
2019-02-27T01:26:15.594Z,48.73
2019-02-27T01:28:45.473Z,48.00
2019-02-27T01:31:14.704Z,49.00
2019-02-27T01:33:43.456Z,48.40
2019-02-27T01:36:12.125Z,48.57
2019-02-27T01:38:40.936Z,46.37
2019-02-27T01:41:09.666Z,45.80
2019-02-27T01:43:40.061Z,45.87
2019-02-27T01:46:08.879Z,49.30
2019-02-27T01:48:42.562Z,46.00
2019-02-27T01:51:08.132Z,47.07
2019-02-27T01:53:37.930Z,46.27
2019-02-27T01:56:07.410Z,44.77
2019-02-27T01:58:36.117Z,47.20
2019-02-27T02:01:44.591Z,47.13
2019-02-27T02:04:13.338Z,45.97
2019-02-27T02:06:42.038Z,48.57
2019-02-27T02:09:52.135Z,51.50
2019-02-27T02:15:28.885Z,46.90
2019-02-27T02:18:36.237Z,47.07
2019-02-27T02:24:42.296Z,46.93
2019-02-27T02:33:42.994Z,44.73
2019-02-27T02:36:50.336Z,45.17
2019-02-27T02:39:57.644Z,43.90
2019-02-27T02:43:06.321Z,45.10
2019-02-27T02:46:13.572Z,46.30
2019-02-27T02:49:22.147Z,45.60
2019-02-27T02:55:20.163Z,46.73
2019-02-27T02:58:28.767Z,45.90
2019-02-27T03:01:37.289Z,45.27
2019-02-27T03:04:47.979Z,46.13
2019-02-27T03:07:53.737Z,47.13
2019-02-27T03:11:02.296Z,46.10
2019-02-27T03:14:17.256Z,45.87
2019-02-27T03:17:20.012Z,45.67
2019-02-27T03:20:27.283Z,45.47
2019-02-27T03:23:35.884Z,45.20
2019-02-27T03:26:43.358Z,47.50
2019-02-27T03:29:53.408Z,44.33
2019-02-27T03:33:02.330Z,45.53
2019-02-27T03:36:09.637Z,44.40
2019-02-27T03:39:17.044Z,45.70
2019-02-27T03:42:24.279Z,45.87
2019-02-27T03:45:31.843Z,47.50
2019-02-27T03:52:00.482Z,44.60
2019-02-27T03:55:06.403Z,42.27
2019-02-27T03:58:13.655Z,44.80
2019-02-27T04:01:22.274Z,44.67
2019-02-27T04:04:30.551Z,45.63
2019-02-27T04:07:38.743Z,45.23
2019-02-27T04:10:07.593Z,41.07
2019-02-27T04:12:36.327Z,43.37
2019-02-27T04:17:54.497Z,44.27
2019-02-27T04:20:23.208Z,44.30
2019-02-27T04:22:53.703Z,43.10
2019-02-27T04:25:22.491Z,43.80
2019-02-27T04:27:55.178Z,43.77
2019-02-27T04:30:21.816Z,44.23
2019-02-27T04:32:50.500Z,44.07
2019-02-27T04:35:19.243Z,42.00
2019-02-27T04:37:47.910Z,43.20
2019-02-27T04:40:16.873Z,43.00
2019-02-27T04:42:45.537Z,42.13
2019-02-27T04:45:14.349Z,45.03
2019-02-27T04:47:43.019Z,41.90
2019-02-27T04:50:11.919Z,41.67
2019-02-27T04:52:40.606Z,43.73
2019-02-27T04:55:09.269Z,43.73
2019-02-27T04:57:37.731Z,44.30
2019-02-27T05:00:46.209Z,42.10
2019-02-27T05:03:14.986Z,42.27
2019-02-27T05:05:43.666Z,45.30
2019-02-27T05:08:12.355Z,42.93
2019-02-27T05:10:41.271Z,44.83
2019-02-27T05:13:10.029Z,43.43
2019-02-27T05:15:39.464Z,41.20
2019-02-27T05:18:08.897Z,43.43
2019-02-27T05:20:37.471Z,42.53
2019-02-27T05:23:06.476Z,38.93
2019-02-27T05:25:35.150Z,40.60
2019-02-27T05:28:03.816Z,40.63
2019-02-27T05:30:32.527Z,40.40
2019-02-27T05:33:02.115Z,41.67
2019-02-27T05:35:31.756Z,42.50
2019-02-27T05:41:08.644Z,40.47
2019-02-27T05:43:56.480Z,40.47
2019-02-27T05:46:25.154Z,41.93
2019-02-27T05:48:53.990Z,39.50
2019-02-27T05:51:22.884Z,38.50
2019-02-27T05:53:51.593Z,38.37
2019-02-27T05:56:20.294Z,39.97
2019-02-27T05:58:48.951Z,37.90
2019-02-27T06:01:17.783Z,39.23
2019-02-27T06:03:49.451Z,37.93
2019-02-27T06:08:53.038Z,37.57
2019-02-27T06:11:21.776Z,33.97
2019-02-27T06:13:50.441Z,35.80
2019-02-27T06:16:19.207Z,32.83
2019-02-27T06:18:47.931Z,34.67
2019-02-27T06:21:16.671Z,33.13
2019-02-27T06:23:45.385Z,34.07
2019-02-27T06:26:14.160Z,33.67
2019-02-27T06:28:43.005Z,32.40
2019-02-27T06:34:00.930Z,34.03
2019-02-27T06:36:29.665Z,32.40
2019-02-27T06:39:00.451Z,33.50
2019-02-27T06:41:28.891Z,32.00
2019-02-27T06:46:55.007Z,33.57
2019-02-27T06:49:23.850Z,31.40
2019-02-27T06:51:52.551Z,32.80
2019-02-27T06:54:21.288Z,31.53
2019-02-27T06:56:49.917Z,31.23
2019-02-27T06:59:18.813Z,31.87
2019-02-27T07:01:48.101Z,32.80
2019-02-27T07:09:47.434Z,32.90
2019-02-27T07:12:16.460Z,32.37
2019-02-27T07:14:45.467Z,30.87
2019-02-27T07:17:14.307Z,29.40
2019-02-27T07:19:42.960Z,30.20
2019-02-27T07:22:12.637Z,30.33
2019-02-27T07:24:42.172Z,31.30
2019-02-27T07:27:10.936Z,30.33
2019-02-27T07:29:39.633Z,32.00
2019-02-27T07:32:08.335Z,29.90
2019-02-27T07:37:26.511Z,31.60
2019-02-27T07:39:55.748Z,30.07
2019-02-27T07:42:24.572Z,29.07
2019-02-27T07:44:53.251Z,30.90
2019-02-27T07:47:22.005Z,30.77
2019-02-27T07:49:50.666Z,28.33
2019-02-27T07:52:19.364Z,29.93
2019-02-27T07:54:48.110Z,29.13
2019-02-27T07:57:16.765Z,28.73
2019-02-27T07:59:45.789Z,28.77
2019-02-27T08:02:14.480Z,29.83
2019-02-27T08:04:43.143Z,30.00
2019-02-27T08:07:12.419Z,31.00
2019-02-27T08:10:04.544Z,29.97
2019-02-27T08:12:32.282Z,30.37
2019-02-27T08:15:01.031Z,28.10
2019-02-27T08:20:21.462Z,28.87
2019-02-27T08:22:50.092Z,31.50
2019-02-27T08:28:15.866Z,29.70
2019-02-27T08:30:44.593Z,30.97
2019-02-27T08:33:15.215Z,30.87
2019-02-27T08:38:19.283Z,29.20
2019-02-27T08:40:48.009Z,29.97
2019-02-27T08:43:16.718Z,29.90
2019-02-27T08:45:45.463Z,30.03
2019-02-27T08:48:16.909Z,29.67
2019-02-27T08:53:13.558Z,29.87
2019-02-27T08:55:42.251Z,30.60
2019-02-27T08:58:11.053Z,29.60
2019-02-27T09:00:39.772Z,29.57
2019-02-27T09:06:09.691Z,32.43
2019-02-27T09:08:43.259Z,29.13
2019-02-27T09:11:08.824Z,30.20
2019-02-27T09:13:37.508Z,30.73
2019-02-27T09:16:06.148Z,31.03
2019-02-27T09:18:36.446Z,31.17
2019-02-27T09:21:05.309Z,29.70
2019-02-27T09:23:34.188Z,32.63
2019-02-27T09:26:03.578Z,29.37
2019-02-27T09:31:04.307Z,28.70
2019-02-27T09:33:38.587Z,31.33
2019-02-27T09:38:38.705Z,29.87
2019-02-27T09:41:12.193Z,29.87
2019-02-27T09:43:37.556Z,29.87
2019-02-27T09:46:06.308Z,29.10
2019-02-27T09:48:35.024Z,29.00
2019-02-27T09:51:03.674Z,27.43
2019-02-27T09:53:33.954Z,29.93
2019-02-27T09:56:02.769Z,28.33
2019-02-27T09:58:31.379Z,28.40
2019-02-27T10:01:20.852Z,28.00
2019-02-27T10:03:52.051Z,27.87
2019-02-27T10:06:19.970Z,28.50
2019-02-27T10:08:48.642Z,27.07
2019-02-27T10:14:04.821Z,30.50
2019-02-27T10:16:34.855Z,28.37
2019-02-27T10:19:03.888Z,29.27
2019-02-27T10:21:32.770Z,25.50
2019-02-27T10:24:04.356Z,27.90
2019-02-27T10:26:31.965Z,27.43
2019-02-27T10:29:00.520Z,28.00
2019-02-27T10:31:29.028Z,27.00
2019-02-27T10:33:57.711Z,27.07
2019-02-27T10:36:26.395Z,27.83
2019-02-27T10:38:55.050Z,28.03
2019-02-27T10:41:23.641Z,27.33
2019-02-27T10:43:54.022Z,27.50
2019-02-27T10:46:23.770Z,29.43
2019-02-27T10:51:28.221Z,28.30
2019-02-27T10:53:56.879Z,28.13
2019-02-27T10:56:25.442Z,25.67
2019-02-27T10:58:54.041Z,26.23
2019-02-27T11:01:22.629Z,26.97
2019-02-27T11:03:51.308Z,25.70
2019-02-27T11:06:19.835Z,25.70
2019-02-27T11:08:48.429Z,24.40
2019-02-27T11:11:17.076Z,24.93
2019-02-27T11:13:45.561Z,25.63
2019-02-27T11:16:15.522Z,25.83
2019-02-27T11:18:44.561Z,25.83
2019-02-27T11:21:13.117Z,24.77
2019-02-27T11:23:41.775Z,24.90
2019-02-27T11:26:10.401Z,25.10
2019-02-27T11:28:38.995Z,24.77
2019-02-27T11:31:47.440Z,24.90
2019-02-27T11:34:16.227Z,25.30
2019-02-27T11:36:46.211Z,25.17
2019-02-27T11:39:15.267Z,24.77
2019-02-27T11:41:46.083Z,24.87
2019-02-27T11:44:14.435Z,26.10
2019-02-27T11:46:44.624Z,25.00
2019-02-27T11:49:13.278Z,25.67
2019-02-27T11:51:41.866Z,26.33
2019-02-27T11:54:10.654Z,26.37
2019-02-27T11:56:39.264Z,26.20
2019-02-27T11:59:10.343Z,25.33
2019-02-27T12:01:38.142Z,24.83
2019-02-27T12:04:06.788Z,26.23
2019-02-27T12:06:35.514Z,23.80
2019-02-27T12:11:58.570Z,24.53
2019-02-27T12:14:27.354Z,24.70
2019-02-27T12:16:55.962Z,26.67
2019-02-27T12:19:24.834Z,25.97
2019-02-27T12:24:42.436Z,26.13
2019-02-27T12:27:24.450Z,23.93
2019-02-27T12:29:41.899Z,23.83
2019-02-27T12:32:10.583Z,23.83
2019-02-27T12:34:39.284Z,24.23
2019-02-27T12:37:16.387Z,23.30
2019-02-27T12:39:38.726Z,23.83
2019-02-27T12:42:07.838Z,22.50
2019-02-27T12:44:37.627Z,22.73
2019-02-27T12:47:06.326Z,22.03
2019-02-27T12:49:34.823Z,22.60
2019-02-27T12:52:03.479Z,22.93
2019-02-27T12:54:32.445Z,21.77
2019-02-27T12:57:01.224Z,21.50
2019-02-27T12:59:30.767Z,22.40
2019-02-27T13:02:08.109Z,20.00
2019-02-27T13:04:30.544Z,20.27
2019-02-27T13:06:59.230Z,19.33
2019-02-27T13:09:47.290Z,19.30
2019-02-27T13:12:17.356Z,20.67
2019-02-27T13:14:46.379Z,19.47
2019-02-27T13:17:15.070Z,19.63
2019-02-27T13:19:43.723Z,19.83
2019-02-27T13:22:12.355Z,19.67
2019-02-27T13:24:40.933Z,20.00
2019-02-27T13:27:09.949Z,19.50
2019-02-27T13:29:39.744Z,19.80
2019-02-27T13:32:08.179Z,18.90
2019-02-27T13:34:37.714Z,18.20
2019-02-27T13:37:06.927Z,18.87
2019-02-27T13:39:36.529Z,18.20
2019-02-27T13:42:45.010Z,18.97
2019-02-27T13:45:53.466Z,17.70
2019-02-27T13:48:22.099Z,16.23
2019-02-27T13:50:50.677Z,16.43
2019-02-27T13:53:25.788Z,17.70
2019-02-27T13:55:49.800Z,15.33
2019-02-27T13:58:18.528Z,15.83
2019-02-27T14:00:47.157Z,16.23
2019-02-27T14:06:47.416Z,15.00
2019-02-27T14:09:15.237Z,15.87
2019-02-27T14:11:43.892Z,15.60
2019-02-27T14:14:15.102Z,15.10
2019-02-27T14:16:43.009Z,15.27
2019-02-27T14:19:11.582Z,15.27
2019-02-27T14:21:40.374Z,15.37
2019-02-27T14:24:08.938Z,15.93
2019-02-27T14:26:38.253Z,15.80
2019-02-27T14:29:08.038Z,15.87
2019-02-27T14:31:36.674Z,16.03
2019-02-27T14:34:06.113Z,15.80
2019-02-27T14:36:34.659Z,16.43
2019-02-27T14:39:03.311Z,17.10
2019-02-27T14:41:32.081Z,17.90
2019-02-27T14:44:00.759Z,17.00
2019-02-27T14:46:29.303Z,18.50
2019-02-27T14:48:58.162Z,17.80
2019-02-27T14:51:26.692Z,17.63
2019-02-27T14:53:55.906Z,17.70
2019-02-27T14:56:25.506Z,18.10
2019-02-27T14:58:56.546Z,17.80
2019-02-27T15:01:24.371Z,18.10
2019-02-27T15:03:52.999Z,17.43
2019-02-27T15:06:21.654Z,20.70
2019-02-27T15:08:57.774Z,20.00
2019-02-27T15:11:20.519Z,16.83
2019-02-27T15:13:49.307Z,17.40
2019-02-27T15:16:17.856Z,19.27
2019-02-27T15:18:46.362Z,18.30
2019-02-27T15:21:14.876Z,17.93
2019-02-27T15:23:43.443Z,17.73
2019-02-27T15:26:13.689Z,17.43
2019-02-27T15:28:42.213Z,17.40
2019-02-27T15:31:10.680Z,18.63
2019-02-27T15:33:39.233Z,18.90
2019-02-27T15:36:08.095Z,17.50
2019-02-27T15:38:36.677Z,17.93
2019-02-27T15:41:05.632Z,18.70
2019-02-27T15:43:35.362Z,18.63
2019-02-27T15:46:03.845Z,19.47
2019-02-27T15:48:32.318Z,18.50
2019-02-27T15:51:00.725Z,19.20
2019-02-27T15:53:29.315Z,18.13
2019-02-27T15:55:57.834Z,18.80
2019-02-27T15:58:28.035Z,17.23
2019-02-27T16:00:56.919Z,18.20
2019-02-27T16:06:20.179Z,18.27
2019-02-27T16:08:49.007Z,19.63
2019-02-27T16:11:18.406Z,17.87
2019-02-27T16:13:47.250Z,17.70
2019-02-27T16:16:15.929Z,17.50
2019-02-27T16:18:44.977Z,17.40
2019-02-27T16:21:13.757Z,16.73
2019-02-27T16:23:42.533Z,17.07
2019-02-27T16:26:11.249Z,17.37
2019-02-27T16:28:39.867Z,16.67
2019-02-27T16:31:08.810Z,16.87
2019-02-27T16:33:37.701Z,17.37
2019-02-27T16:36:06.353Z,18.43
2019-02-27T16:38:34.995Z,18.60
2019-02-27T16:43:52.742Z,19.07
2019-02-27T16:46:22.824Z,17.97
2019-02-27T16:48:51.880Z,19.50
2019-02-27T16:51:20.763Z,17.87
2019-02-27T16:53:52.335Z,18.57
2019-02-27T16:56:19.887Z,17.57
2019-02-27T16:58:48.789Z,18.07
2019-02-27T17:01:18.926Z,18.53
2019-02-27T17:03:52.585Z,17.07
2019-02-27T17:06:18.400Z,18.03
2019-02-27T17:08:47.135Z,17.40
2019-02-27T17:11:15.699Z,17.97
2019-02-27T17:13:46.987Z,16.27
2019-02-27T17:16:15.182Z,18.57
2019-02-27T17:18:43.794Z,17.90
2019-02-27T17:21:12.467Z,17.87
2019-02-27T17:23:43.271Z,18.50
2019-02-27T17:26:11.391Z,20.23
2019-02-27T17:29:22.836Z,18.57
2019-02-27T17:34:20.155Z,19.97
2019-02-27T17:36:49.285Z,17.83
2019-02-27T17:39:18.090Z,19.00
2019-02-27T17:41:46.976Z,18.97
2019-02-27T17:44:15.818Z,18.77
2019-02-27T17:47:03.807Z,17.10
2019-02-27T17:49:32.541Z,18.83
2019-02-27T17:57:25.008Z,16.97
2019-02-27T17:59:52.592Z,17.60
2019-02-27T18:02:21.217Z,18.20
2019-02-27T18:04:53.064Z,17.47
2019-02-27T18:07:20.198Z,16.03
2019-02-27T18:09:48.712Z,17.60
2019-02-27T18:12:17.439Z,17.67
2019-02-27T18:14:46.998Z,16.60
2019-02-27T18:19:52.218Z,17.30
2019-02-27T18:22:20.727Z,16.93
2019-02-27T18:24:49.182Z,17.43
2019-02-27T18:27:17.910Z,17.17
2019-02-27T18:29:46.500Z,17.17
2019-02-27T18:32:15.016Z,17.77
2019-02-27T18:34:43.576Z,17.03
2019-02-27T18:37:12.198Z,15.90
2019-02-27T18:39:40.759Z,15.70
2019-02-27T18:42:09.430Z,18.97
2019-02-27T18:44:38.368Z,18.23
2019-02-27T18:47:08.303Z,16.27
2019-02-27T18:49:37.262Z,17.00
2019-02-27T18:52:06.618Z,15.73
2019-02-27T18:54:36.018Z,15.80
2019-02-27T18:57:04.543Z,16.03
2019-02-27T18:59:33.184Z,15.90
2019-02-27T19:02:01.813Z,16.53
2019-02-27T19:04:35.013Z,16.90
2019-02-27T19:07:00.692Z,16.70
2019-02-27T19:09:32.143Z,16.83
2019-02-27T19:11:59.567Z,17.50
2019-02-27T19:14:28.042Z,18.20
2019-02-27T19:16:56.751Z,17.80
2019-02-27T19:19:25.276Z,17.70
2019-02-27T19:24:29.510Z,17.53
2019-02-27T19:26:58.010Z,18.53
2019-02-27T19:29:26.673Z,20.10
2019-02-27T19:31:55.320Z,17.63
2019-02-27T19:34:24.158Z,18.73
2019-02-27T19:36:52.795Z,18.37
2019-02-27T19:39:22.470Z,18.67
2019-02-27T19:41:51.722Z,17.93
2019-02-27T19:44:20.772Z,18.90
2019-02-27T19:46:49.477Z,18.33
2019-02-27T19:49:18.350Z,19.20
2019-02-27T19:51:46.948Z,18.27
2019-02-27T19:54:18.422Z,19.23
2019-02-27T19:56:55.817Z,18.87
2019-02-27T19:59:24.866Z,18.27
2019-02-27T20:01:54.461Z,16.57
2019-02-27T20:04:23.024Z,17.67
2019-02-27T20:06:51.536Z,17.90
2019-02-27T20:09:20.549Z,17.67
2019-02-27T20:11:50.429Z,17.10
2019-02-27T20:14:19.250Z,17.47
2019-02-27T20:16:47.776Z,17.77
2019-02-27T20:19:22.339Z,18.27
2019-02-27T20:21:46.610Z,17.60
2019-02-27T20:24:15.162Z,17.83
2019-02-27T20:26:44.846Z,16.80
2019-02-27T20:32:03.572Z,17.40
2019-02-27T20:34:32.073Z,17.70
2019-02-27T20:37:03.311Z,16.77
2019-02-27T20:39:30.912Z,17.60
2019-02-27T20:47:29.938Z,16.87
2019-02-27T20:49:58.472Z,17.70
2019-02-27T20:52:27.109Z,16.43
2019-02-27T20:54:58.819Z,16.77
2019-02-27T20:57:25.969Z,16.90
2019-02-27T21:00:00.665Z,16.57
2019-02-27T21:02:24.835Z,17.70
2019-02-27T21:04:53.355Z,17.60
2019-02-27T21:07:22.475Z,16.40
2019-02-27T21:09:52.126Z,16.87
2019-02-27T21:12:20.639Z,15.97
2019-02-27T21:14:49.283Z,16.77
2019-02-27T21:17:20.870Z,17.83
2019-02-27T21:19:48.093Z,15.63
2019-02-27T21:22:16.840Z,16.17
2019-02-27T21:24:45.437Z,14.97
2019-02-27T21:27:34.011Z,15.73
2019-02-27T21:30:02.745Z,15.27
2019-02-27T21:32:33.192Z,16.30
2019-02-27T21:35:01.780Z,15.63
2019-02-27T21:37:30.536Z,15.70
2019-02-27T21:40:02.037Z,15.43
2019-02-27T21:42:29.669Z,15.67
2019-02-27T21:45:03.112Z,16.10
2019-02-27T21:47:28.848Z,14.90
2019-02-27T21:49:57.742Z,15.30
2019-02-27T21:52:26.337Z,15.87
2019-02-27T21:54:54.795Z,14.73
2019-02-27T21:57:25.475Z,14.90
2019-02-27T21:59:53.614Z,14.57
2019-02-27T22:02:22.161Z,14.60
2019-02-27T22:04:50.767Z,14.20
2019-02-27T22:07:19.370Z,14.17
2019-02-27T22:09:48.023Z,14.70
2019-02-27T22:12:16.702Z,13.80
2019-02-27T22:14:45.264Z,14.70
2019-02-27T22:17:13.897Z,14.97
2019-02-27T22:20:01.958Z,14.00
2019-02-27T22:22:30.537Z,14.80
2019-02-27T22:24:59.141Z,13.53
2019-02-27T22:27:27.788Z,13.50
2019-02-27T22:33:23.950Z,14.47
2019-02-27T22:35:52.543Z,14.50
2019-02-27T22:38:25.567Z,14.70
2019-02-27T22:40:51.871Z,13.77
2019-02-27T22:43:21.989Z,13.50
2019-02-27T22:45:50.858Z,15.20
2019-02-27T22:48:19.534Z,13.70
2019-02-27T22:50:48.271Z,14.03
2019-02-27T22:53:16.907Z,14.77
2019-02-27T22:55:45.636Z,14.60
2019-02-27T22:58:14.296Z,13.23
2019-02-27T23:01:22.751Z,14.00
2019-02-27T23:04:31.289Z,14.00
2019-02-27T23:06:59.961Z,14.13
2019-02-27T23:10:08.930Z,13.07
2019-02-27T23:12:39.494Z,13.30
2019-02-27T23:15:47.560Z,14.13
2019-02-27T23:18:56.057Z,14.47
2019-02-27T23:21:26.617Z,14.90
2019-02-27T23:23:55.039Z,13.43
2019-02-27T23:26:23.576Z,14.00
2019-02-27T23:28:52.166Z,13.50
2019-02-27T23:31:23.428Z,13.73
2019-02-27T23:33:51.433Z,14.60
2019-02-27T23:36:22.075Z,13.50
2019-02-27T23:38:50.547Z,13.30
2019-02-27T23:41:22.568Z,12.70
2019-02-27T23:43:49.368Z,16.10
2019-02-27T23:46:18.594Z,13.80
2019-02-27T23:48:48.508Z,14.40
2019-02-27T23:51:17.168Z,13.50
2019-02-27T23:53:45.824Z,13.50
2019-02-27T23:56:19.344Z,13.43
2019-02-27T23:58:44.998Z,14.73
